KMVE

Montevideo-Chippewa County Airport

Montevideo, Minnesota, USA
METAR KMVE 260315Z AUTO 24005KT 10SM CLR M08/M10 A2992 RMK AO2
Observed Flight Rules
Feb-26 @ 03:15 UTC (9 minutes ago) Visual Flight Rules
Wind Visibility Clouds
240° at 5 knots 10 miles
  • Clear skies
Temperatures Readings
Current -8°C / 18°F
Dewpoint -10°C / 14°F
Humidity 86%
Altimeter 29.92" Hg
Pressure 1013 hPa
Elevation 315
METAR KMVE 260315Z AUTO 24005KT 10SM CLR M08/M10 A2992 RMK AO2
Observed Flight Rules
Feb-26 @ 03:15 UTC
(9 minutes ago)
VFR
Wind Visibility
240° at 5 knots 10 miles
Clouds
  • Clear skies
Temperature Dewpoint
-8°C / 18°F -10°C / 14°F
Humidity Altimeter Pressure
86% 29.92" Hg 1013 hPa